Date,TemperatureHighF,TemperatureAvgF,TemperatureLowF,DewpointHighF,DewpointAvgF,DewpointLowF,HumidityHigh,HumidityAvg,HumidityLow,PressureMaxIn,PressureMinIn,WindSpeedMaxMPH,WindSpeedAvgMPH,GustSpeedMaxMPH,PrecipitationSumIn
2012-1-1,50,41,34,42,36,28,95,82,62,30.01,29.45,18,4,28,0.10
2012-1-2,34,29,18,30,21,11,92,72,55,29.86,29.57,16,5,24,0.01
2012-1-3,18,11,4,13,3,-4,80,70,57,30.26,29.86,10,2,10,0.00
2012-1-4,30,18,3,20,8,-4,75,64,43,30.24,29.80,9,2,15,0.01
2012-1-5,34,31,29,26,24,20,82,73,67,29.87,29.73,9,2,14,0.00
2012-1-6,52,42,32,34,30,24,78,64,50,29.72,29.54,18,3,24,0.00
2012-1-7,47,42,36,37,32,26,80,69,46,30.00,29.57,20,3,20,0.00
2012-1-8,35,29,21,26,21,16,86,71,60,30.32,30.01,10,1,12,0.00
2012-1-9,44,34,23,24,21,15,86,61,31,30.26,29.78,9,1,14,0.00
2012-1-10,41,38,34,31,28,23,78,65,51,29.97,29.74,15,3,17,0.00
2012-1-11,50,38,27,36,29,24,91,72,46,29.93,29.61,5,1,12,0.07
2012-1-12,43,39,36,42,38,34,97,95,90,29.60,29.25,8,1,11,0.59
2012-1-13,41,27,19,40,25,17,97,90,78,29.72,29.19,20,7,29,0.05
2012-1-14,23,16,7,20,10,1,90,79,67,30.21,29.72,12,2,13,0.00
2012-1-15,19,10,1,7,3,-4,83,73,57,30.56,30.21,8,0,8,0.01
2012-1-16,39,23,2,34,15,-3,92,71,48,30.52,29.83,7,2,14,0.39
2012-1-17,50,40,31,48,38,21,97,91,66,29.82,29.22,28,4,36,0.41
2012-1-18,31,22,14,22,12,8,82,67,52,30.17,29.62,19,3,25,0.00
2012-1-19,29,21,13,23,14,7,89,74,52,30.11,29.69,15,3,20,0.00
2012-1-20,21,17,14,11,8,6,81,68,58,30.27,29.95,10,2,12,0.01
2012-1-21,28,21,16,19,16,11,86,80,61,30.32,30.03,5,0,7,0.08
2012-1-22,36,25,13,26,17,9,86,73,50,30.36,30.07,10,1,11,0.03
2012-1-23,48,41,32,41,35,27,88,80,72,30.06,29.57,19,5,23,0.16
2012-1-24,39,34,32,33,28,24,86,79,71,30.18,29.71,18,6,23,0.00
2012-1-25,32,30,29,25,23,21,84,74,69,30.33,30.18,7,2,15,0.00
2012-1-26,36,32,28,36,30,25,96,90,80,30.18,29.54,4,0,7,0.20
2012-1-27,43,37,33,43,34,26,98,91,69,29.88,29.25,15,3,19,0.40
2012-1-28,38,33,28,34,26,16,89,77,53,29.92,29.67,25,4,28,0.06
2012-1-29,35,31,28,29,23,13,92,74,48,29.98,29.86,19,4,25,0.01
2012-1-30,31,27,23,25,19,12,90,73,46,30.23,29.98,10,2,15,0.11
2012-1-31,54,43,27,38,32,23,89,68,50,29.98,29.75,10,2,18,0.23
2012-2-1,54,45,36,47,38,29,93,75,54,30.05,29.72,13,4,22,0.10
2012-2-2,36,32,30,30,26,21,89,80,71,30.35,30.03,6,1,7,0.00
2012-2-3,37,33,28,31,27,22,84,79,73,30.45,30.30,10,1,13,0.02
2012-2-4,38,33,27,31,26,23,88,79,58,30.32,30.15,6,1,7,0.00
2012-2-5,34,30,28,27,25,22,87,81,74,30.18,30.09,3,0,4,0.00
2012-2-6,46,38,31,31,28,21,85,68,40,30.09,29.87,19,6,28,0.01
2012-2-7,37,32,22,31,26,17,91,81,72,30.29,29.96,6,1,7,0.02
2012-2-8,30,24,18,20,17,14,88,74,59,30.29,30.08,6,1,9,0.01
2012-2-9,39,31,26,26,22,16,81,68,53,30.11,30.03,12,4,19,0.00
2012-2-10,34,31,29,26,21,18,81,66,53,30.04,29.84,10,2,16,0.00
2012-2-11,30,20,12,26,16,6,91,84,72,29.97,29.75,13,2,14,0.00
2012-2-12,25,20,15,20,15,12,90,80,64,29.95,29.83,16,4,19,0.01
2012-2-13,37,29,23,22,19,14,74,64,51,29.94,29.88,17,6,21,0.14
2012-2-14,37,33,28,31,24,15,92,71,51,29.95,29.87,5,1,7,0.02
2012-2-15,39,34,25,32,28,21,93,81,59,30.22,29.95,10,2,16,0.03
2012-2-16,42,35,25,39,32,21,91,88,81,30.20,29.83,10,1,16,0.09
2012-2-17,41,35,28,35,29,23,91,79,62,30.02,29.88,17,3,17,0.00
2012-2-18,41,31,24,33,27,20,92,85,68,30.11,29.77,14,2,16,0.23
2012-2-19,31,28,25,26,21,18,83,73,66,30.12,30.06,4,1,5,0.01
2012-2-20,38,27,18,21,18,14,88,69,44,30.32,30.10,3,0,9,0.01
2012-2-21,40,32,21,34,23,17,85,70,44,30.28,29.60,10,2,13,0.00
2012-2-22,45,38,32,37,32,29,92,82,62,29.62,29.38,15,3,25,0.07
2012-2-23,42,34,28,35,30,25,95,85,61,29.69,29.37,6,1,12,0.35
2012-2-24,43,36,32,42,32,26,95,87,70,29.64,29.18,20,5,30,0.27
2012-2-25,34,29,25,28,21,10,96,73,44,30.15,29.32,25,6,32,0.04
2012-2-26,32,27,19,20,17,13,84,66,55,30.41,30.16,6,1,13,0.06
2012-2-27,50,36,22,28,23,18,84,60,37,30.23,29.93,22,4,26,0.01
2012-2-28,35,31,27,25,21,19,82,68,58,30.46,30.22,13,2,20,0.00
2012-2-29,37,32,29,36,28,22,96,85,69,30.29,29.52,10,2,13,0.19
2012-3-1,42,38,36,40,35,32,96,86,71,29.86,29.45,13,3,19,0.17
2012-3-2,50,42,35,39,34,32,90,74,52,29.89,29.29,10,2,18,0.09
2012-3-3,48,39,30,43,29,22,89,68,46,29.60,29.17,29,10,42,0.04
2012-3-4,32,27,19,27,21,12,87,79,64,29.82,29.57,9,2,14,0.04
2012-3-5,25,18,12,13,8,6,80,66,44,30.40,29.82,10,2,13,0.01
2012-3-6,43,30,14,23,17,10,87,61,40,30.51,30.19,9,1,12,0.01
2012-3-7,67,54,41,40,29,20,48,39,27,30.20,29.96,17,3,25,0.00
2012-3-8,60,51,32,51,40,23,92,70,43,29.97,29.65,14,4,20,0.33
2012-3-9,36,30,24,31,21,11,89,69,47,30.32,29.97,18,4,29,0.02
2012-3-10,37,28,20,20,15,11,81,61,41,30.56,30.24,12,2,25,0.00
2012-3-11,61,48,33,28,24,20,58,42,27,30.26,30.18,16,4,24,0.00
2012-3-12,68,52,35,49,35,26,80,55,26,30.20,29.86,10,1,15,0.00
2012-3-13,63,57,47,54,48,38,92,74,53,29.98,29.76,15,5,24,0.09
2012-3-14,62,47,37,38,33,26,91,61,27,30.12,29.99,14,2,14,0.00
2012-3-15,72,53,42,51,40,27,80,61,44,30.10,29.96,8,1,11,0.00
2012-3-16,66,58,50,56,52,47,96,80,66,30.15,29.91,6,1,14,0.01
2012-3-17,71,54,46,56,50,44,98,86,59,30.22,30.13,12,1,12,0.01
2012-3-18,78,61,46,59,52,45,97,76,47,30.13,30.02,6,0,10,0.01
2012-3-19,74,62,53,59,56,52,97,81,56,30.11,30.03,6,0,9,0.00
2012-3-20,76,63,52,59,55,51,97,79,50,30.19,30.09,6,0,6,0.01
2012-3-21,79,65,54,59,54,51,91,72,42,30.22,30.09,6,0,7,0.00
2012-3-22,78,65,53,57,54,50,92,69,45,30.15,30.03,6,1,9,0.00
2012-3-23,63,57,53,54,45,32,92,66,40,30.13,30.00,12,4,14,0.00
2012-3-24,56,51,46,50,38,28,95,64,38,30.00,29.79,9,2,13,0.05
2012-3-25,61,50,43,51,47,39,96,88,64,29.82,29.73,10,2,15,0.09
2012-3-26,47,36,30,38,20,8,78,54,32,30.29,29.81,17,3,17,0.00
2012-3-27,44,33,23,23,13,6,63,45,24,30.37,29.88,7,1,8,0.00
2012-3-28,68,53,40,50,38,17,87,58,29,29.87,29.46,17,4,19,0.08
2012-3-29,42,38,36,37,32,26,93,79,65,30.08,29.70,10,2,16,0.11
2012-3-30,42,35,27,31,24,16,94,67,41,30.10,29.86,13,3,14,0.00
2012-3-31,43,36,30,35,32,27,95,87,66,29.91,29.81,9,2,14,0.20
2012-4-1,38,34,27,37,32,25,95,93,88,29.89,29.66,3,0,6,0.24
2012-4-2,52,42,32,36,27,18,96,64,27,29.96,29.74,10,1,13,0.01
2012-4-3,56,42,28,32,24,16,82,52,24,30.01,29.77,5,1,10,0.00
2012-4-4,54,45,35,36,30,25,75,57,38,29.80,29.67,10,2,15,0.00
2012-4-5,45,38,33,29,26,23,75,61,42,30.00,29.78,12,2,13,0.00
2012-4-6,52,40,27,29,23,15,90,55,23,30.12,30.00,7,1,12,0.00
2012-4-7,57,43,28,31,23,15,86,50,22,30.20,30.06,12,2,16,0.00
2012-4-8,63,46,34,42,29,22,79,55,23,30.05,29.73,13,3,20,0.04
2012-4-9,54,46,38,31,25,19,64,46,27,29.74,29.60,31,8,31,0.00
2012-4-10,47,42,36,34,29,23,90,63,45,29.79,29.58,15,4,22,0.04
2012-4-11,49,40,35,38,35,33,94,83,55,30.04,29.78,9,1,12,0.11
2012-4-12,53,45,38,37,31,28,88,60,39,30.14,30.03,7,1,15,0.00
2012-4-13,60,46,33,34,29,21,82,54,28,30.23,30.12,9,1,12,0.00
2012-4-14,66,51,36,44,32,26,75,51,27,30.13,29.89,11,2,14,0.00
2012-4-15,68,62,56,60,57,52,92,85,73,29.89,29.77,7,1,14,0.07
2012-4-16,86,68,57,60,54,43,92,63,35,29.91,29.63,18,4,26,0.01
2012-4-17,57,49,37,43,35,30,76,58,47,30.32,29.92,13,3,24,0.00
2012-4-18,53,40,28,34,29,26,92,68,43,30.33,30.02,9,1,11,0.00
2012-4-19,71,54,34,50,41,29,88,63,39,30.02,29.86,12,2,18,0.00
2012-4-20,82,64,50,50,47,40,86,59,23,29.86,29.58,14,1,19,0.00
2012-4-21,59,44,38,49,41,36,94,90,63,29.93,29.62,7,1,7,0.59
2012-4-22,41,39,37,38,36,34,95,88,77,29.93,29.75,16,4,19,0.12
2012-4-23,39,35,33,36,33,31,95,94,89,29.73,29.21,15,3,26,1.83
2012-4-24,42,38,33,37,34,31,96,86,67,29.56,29.17,15,5,22,0.38
2012-4-25,55,44,36,35,31,26,85,62,33,29.84,29.56,11,2,16,0.01
2012-4-26,60,44,33,43,36,29,90,73,40,29.81,29.52,12,2,15,0.09
2012-4-27,44,38,34,37,26,21,86,63,49,30.18,29.74,13,3,15,0.01
2012-4-28,48,38,25,32,24,9,90,61,22,30.25,30.14,6,1,6,0.00
2012-4-29,55,41,27,29,22,16,83,53,22,30.24,30.16,11,2,15,0.00
2012-4-30,57,44,29,46,31,20,92,65,24,30.26,29.88,9,1,9,0.15
2012-5-1,57,52,48,51,48,46,95,88,75,30.01,29.79,7,1,11,0.09
2012-5-2,72,59,46,61,53,45,96,82,58,30.01,29.81,8,1,11,0.03
2012-5-3,80,65,54,64,58,53,97,81,57,30.00,29.79,7,1,14,0.14
2012-5-4,73,65,56,63,59,54,96,82,65,29.91,29.82,10,2,14,0.01
2012-5-5,61,52,42,55,40,29,88,66,33,30.08,29.92,11,4,13,0.00
2012-5-6,63,51,36,43,35,24,96,61,24,30.09,30.02,11,2,13,0.00
2012-5-7,66,57,48,58,49,38,94,76,48,30.04,29.74,6,0,9,0.26
2012-5-8,64,60,54,61,57,51,96,92,81,29.74,29.66,6,1,9,0.43
2012-5-9,68,57,50,55,49,43,95,75,43,29.72,29.58,11,2,17,0.00
2012-5-10,60,51,45,45,37,30,86,60,34,29.83,29.60,23,4,23,0.00
2012-5-11,68,55,40,40,36,31,81,52,28,30.06,29.83,12,2,17,0.00
2012-5-12,76,62,43,47,41,36,90,51,25,30.13,30.07,18,3,20,0.00
2012-5-13,68,60,52,54,51,47,93,72,49,30.14,30.05,9,1,12,0.00
2012-5-14,74,61,51,57,52,48,96,76,43,30.05,29.94,10,1,10,0.00
2012-5-15,74,62,50,59,51,44,97,72,35,29.95,29.82,6,0,10,0.00
2012-5-16,72,57,43,55,46,37,84,67,44,30.02,29.74,12,2,18,0.00
2012-5-17,62,49,36,41,36,29,96,65,30,30.16,30.03,9,1,11,0.00
2012-5-18,72,55,37,46,39,34,95,61,26,30.17,30.07,8,1,10,0.00
2012-5-19,81,64,48,56,48,43,88,60,27,30.11,30.07,8,0,10,0.00
2012-5-20,85,68,50,58,53,48,96,64,28,30.16,30.02,9,1,9,0.00
2012-5-21,83,69,58,64,58,48,95,69,47,30.04,29.86,7,1,9,0.30
2012-5-22,76,67,62,66,62,60,95,87,64,29.85,29.75,8,1,8,0.55
2012-5-23,75,66,60,62,60,57,95,82,61,29.93,29.83,6,1,12,0.00
2012-5-24,82,70,56,65,60,55,97,72,45,29.99,29.87,6,1,10,0.00
2012-5-25,86,76,67,70,63,59,81,66,42,29.98,29.87,11,2,12,0.01
2012-5-26,79,68,57,60,54,47,94,65,36,30.12,29.98,6,0,7,0.00
2012-5-27,80,66,52,61,53,48,94,65,34,30.12,29.90,4,0,9,0.00
2012-5-28,89,73,57,71,63,55,96,73,46,29.92,29.69,11,1,13,0.00
2012-5-29,86,76,63,70,66,61,96,73,56,29.69,29.58,13,3,16,0.07
2012-5-30,74,65,58,62,54,47,96,70,41,29.77,29.65,7,1,11,0.00
2012-5-31,65,57,48,51,46,42,91,69,46,29.95,29.77,7,1,11,0.00
2012-6-1,61,56,48,59,52,44,96,88,66,29.96,29.50,10,2,12,0.71
2012-6-2,67,58,52,58,49,44,95,73,44,29.67,29.55,14,3,17,0.02
2012-6-3,65,58,54,58,52,47,95,84,64,29.64,29.59,11,1,13,0.99
2012-6-4,55,53,49,52,51,48,96,93,86,29.84,29.61,12,1,12,0.13
2012-6-5,67,57,49,51,49,46,95,76,51,29.93,29.83,11,1,13,0.00
2012-6-6,72,59,46,56,51,45,98,76,50,29.93,29.86,8,1,12,0.00
2012-6-7,77,63,50,57,53,49,96,74,39,29.95,29.85,6,1,7,0.01
2012-6-8,79,68,56,57,53,49,86,61,35,29.89,29.78,11,3,16,0.00
2012-6-9,72,67,60,64,60,50,95,79,58,29.88,29.78,12,2,15,0.30
2012-6-10,85,73,63,71,64,61,95,78,53,30.01,29.87,7,1,7,0.23
2012-6-11,90,76,63,68,63,60,95,68,41,30.00,29.88,7,1,8,0.01
2012-6-12,77,69,60,71,65,48,96,88,64,29.90,29.72,5,1,9,0.90
2012-6-13,68,59,50,54,50,45,95,74,51,30.13,29.90,5,1,10,0.00
2012-6-14,72,60,48,56,51,47,97,74,46,30.23,30.13,8,1,11,0.00
2012-6-15,80,66,50,61,54,48,97,69,41,30.23,30.16,6,1,10,0.00
2012-6-16,83,70,58,64,59,53,91,71,46,30.22,30.03,5,0,7,0.00
2012-6-17,85,74,63,65,60,57,81,63,48,30.03,29.79,7,1,14,0.00
2012-6-18,81,73,66,67,62,57,89,71,61,29.89,29.81,8,1,13,0.00
2012-6-19,86,76,66,72,66,62,95,73,54,29.95,29.87,15,3,17,0.66
2012-6-20,91,81,70,74,66,61,85,62,43,30.00,29.88,11,2,15,0.00
2012-6-21,88,78,67,69,64,60,86,64,43,29.90,29.71,15,2,19,0.00
2012-6-22,80,71,60,67,62,54,92,74,49,29.85,29.74,7,1,10,0.02
2012-6-23,78,57,56,62,36,-100,93,64,43,29.97,29.85,5,1,10,0.00
2012-6-24,79,55,56,63,27,-100,96,57,43,29.99,29.76,255,0,9,0.03
2012-6-25,68,62,58,60,53,45,96,74,48,29.82,29.74,10,1,15,0.11
2012-6-26,74,64,52,54,50,46,94,64,41,29.85,29.74,10,1,15,0.00
2012-6-27,76,67,56,58,53,46,92,64,38,29.83,29.74,14,2,21,0.00
2012-6-28,86,74,58,66,59,55,93,63,38,29.79,29.59,9,1,11,0.00
2012-6-29,87,78,69,65,61,56,83,58,37,29.67,29.57,12,3,15,0.00
2012-6-30,86,75,65,66,61,53,93,64,33,29.72,29.62,18,4,19,0.00
2012-7-1,82,72,62,63,60,54,95,67,41,29.86,29.71,10,1,14,0.00
2012-7-2,84,71,56,61,58,54,99,67,36,29.95,29.86,9,1,13,0.00
2012-7-3,86,71,57,70,62,56,96,75,45,29.91,29.72,12,1,12,0.02
2012-7-4,90,79,68,74,68,63,86,72,51,29.77,29.67,11,3,17,0.00
2012-7-5,83,73,66,67,63,58,93,73,44,29.86,29.73,7,0,10,0.00
2012-7-6,93,78,64,74,66,60,92,71,40,29.87,29.79,8,1,14,0.00
2012-7-7,81,73,67,71,67,64,95,84,62,29.90,29.78,6,0,12,0.17
2012-7-8,82,72,63,68,63,59,99,74,47,29.89,29.83,7,1,9,0.01
2012-7-9,81,70,58,61,55,49,93,64,33,29.98,29.87,7,1,7,0.00
2012-7-10,81,69,57,61,55,45,94,66,28,30.05,29.94,4,0,9,0.02
2012-7-11,84,69,53,61,53,48,94,63,31,30.12,30.05,8,0,8,0.00
2012-7-12,90,72,54,61,57,52,93,63,31,30.10,30.03,5,0,10,0.00
2012-7-13,93,76,62,68,63,58,94,68,33,30.11,30.04,3,0,9,0.00
2012-7-14,90,77,67,67,65,62,89,68,43,30.11,29.98,7,1,10,0.00
2012-7-15,86,76,69,73,66,62,91,74,46,30.00,29.85,5,0,7,0.01
2012-7-16,89,78,68,70,66,59,95,69,38,29.87,29.75,9,1,11,0.00
2012-7-17,93,83,72,70,66,59,89,57,42,29.77,29.62,16,5,23,0.13
2012-7-18,83,75,64,72,66,59,96,75,45,29.90,29.69,5,1,6,0.00
2012-7-19,74,67,58,65,57,52,99,73,54,29.97,29.88,11,2,13,0.00
2012-7-20,73,69,62,62,56,51,88,66,54,30.01,29.93,6,1,12,0.01
2012-7-21,84,70,58,64,60,56,100,73,39,30.04,29.93,4,0,7,0.00
2012-7-22,86,75,64,68,63,60,88,68,48,30.02,29.94,7,1,11,0.00
2012-7-23,92,81,69,72,66,60,92,63,36,29.94,29.62,17,4,21,0.05
2012-7-24,82,76,61,70,62,53,84,65,41,29.85,29.64,18,2,18,0.00
2012-7-25,84,70,56,64,57,54,95,68,36,29.91,29.67,4,0,9,0.06
2012-7-26,81,72,64,71,67,61,99,84,64,29.67,29.51,11,2,16,1.41
2012-7-27,78,72,64,70,65,59,100,81,55,29.85,29.59,5,1,9,0.07
2012-7-28,78,70,63,69,65,61,100,85,61,29.95,29.85,9,1,11,0.29
2012-7-29,84,71,58,68,58,50,98,69,33,30.00,29.94,7,0,7,0.00
2012-7-30,87,72,59,64,58,51,94,67,31,29.99,29.90,12,1,12,0.00
2012-7-31,89,73,64,70,66,61,96,80,46,29.91,29.73,6,1,10,0.90
2012-8-1,83,72,64,72,65,62,100,80,52,29.81,29.76,9,1,9,0.00
2012-8-2,84,73,62,69,64,61,96,76,47,29.83,29.77,7,1,12,0.00
2012-8-3,88,77,68,73,67,63,86,72,52,29.97,29.82,4,0,6,0.00
2012-8-4,93,81,69,74,69,66,95,70,44,30.01,29.89,7,1,13,0.00
2012-8-5,86,76,66,73,69,64,94,79,63,29.94,29.77,11,2,16,1.33
2012-8-6,78,67,58,63,58,55,94,75,45,30.06,29.95,7,0,11,0.01
2012-8-7,84,70,56,64,57,53,95,69,35,29.96,29.85,7,1,10,0.00
2012-8-8,87,73,61,70,63,58,93,72,42,29.90,29.84,5,0,6,0.00
2012-8-9,80,72,65,69,66,62,93,81,57,29.85,29.73,8,1,12,0.00
2012-8-10,79,70,66,69,66,63,95,85,65,29.75,29.61,5,0,10,0.08
2012-8-11,76,69,63,66,61,57,96,77,54,29.81,29.64,10,1,13,0.01
2012-8-12,76,67,61,67,62,57,92,83,65,29.89,29.80,9,1,12,0.17
2012-8-13,82,70,62,66,61,58,94,76,44,29.95,29.87,5,0,9,0.00
2012-8-14,79,67,63,68,63,60,96,88,61,29.89,29.76,10,0,17,0.98
2012-8-15,78,68,60,67,62,57,97,82,52,29.88,29.81,9,0,9,0.01
2012-8-16,83,69,57,66,60,55,96,76,42,29.91,29.73,6,0,11,0.00
2012-8-17,76,69,58,66,60,54,89,74,57,29.85,29.65,10,2,13,0.01
2012-8-18,72,61,50,54,51,47,95,73,44,29.93,29.85,9,1,11,0.00
2012-8-19,79,63,50,58,52,48,95,73,37,29.94,29.81,5,0,11,0.00
2012-8-20,74,63,52,60,54,50,96,74,45,29.92,29.82,5,0,10,0.00
2012-8-21,78,63,48,58,51,46,96,71,34,30.03,29.92,4,0,7,0.00
2012-8-22,80,65,51,62,56,49,95,76,42,30.09,30.03,6,0,10,0.00
2012-8-23,84,68,54,64,58,52,93,73,38,30.11,30.04,4,0,7,0.00
2012-8-24,88,71,56,62,58,53,95,68,31,30.13,30.06,5,0,10,0.00
2012-8-25,90,75,62,69,61,57,90,65,36,30.16,30.08,10,0,10,0.00
2012-8-26,86,73,61,67,62,57,90,69,49,30.20,30.03,4,0,6,0.00
2012-8-27,80,71,66,70,66,62,94,83,63,30.03,29.84,5,0,7,0.10
2012-8-28,78,69,59,67,62,54,96,79,51,29.94,29.82,7,1,13,0.01
2012-8-29,74,63,52,55,51,44,92,69,36,30.03,29.94,6,0,9,0.00
2012-8-30,83,66,50,63,56,48,94,74,46,30.05,29.92,11,1,12,0.00
2012-8-31,89,74,55,69,59,51,88,63,40,29.94,29.80,16,3,24,0.00
2012-9-1,80,69,57,65,59,53,95,73,42,30.05,29.91,7,1,9,0.00
2012-9-2,85,67,54,60,56,51,96,72,32,30.03,29.96,7,0,11,0.00
2012-9-3,87,71,56,70,63,54,96,79,56,29.99,29.88,7,0,9,0.00
2012-9-4,82,71,67,73,68,65,100,93,68,29.90,29.70,7,0,11,3.35
2012-9-5,81,71,63,69,66,63,100,85,56,29.84,29.76,3,0,4,0.07
2012-9-6,83,72,64,71,66,61,93,81,62,29.83,29.73,7,0,7,0.00
2012-9-7,84,70,58,70,63,56,97,80,48,29.87,29.63,4,0,5,0.01
2012-9-8,69,64,53,67,60,51,94,87,68,29.73,29.36,12,1,21,0.19
2012-9-9,68,59,51,56,51,45,95,79,44,29.94,29.73,7,1,12,0.02
2012-9-10,69,56,46,53,46,42,96,72,40,30.11,29.94,10,1,13,0.01
2012-9-11,76,58,43,58,49,41,95,76,40,30.22,30.11,6,0,7,0.00
2012-9-12,83,66,51,61,54,49,93,69,36,30.25,30.15,4,0,5,0.00
2012-9-13,84,68,54,64,58,52,94,74,39,30.24,30.13,6,0,10,0.00
2012-9-14,81,64,54,66,59,52,95,84,49,30.13,29.98,7,1,16,0.25
2012-9-15,65,56,50,55,51,48,95,84,63,30.19,30.09,7,0,7,0.01
2012-9-16,72,55,45,53,49,44,96,83,50,30.11,30.00,5,1,10,0.00
2012-9-17,57,57,57,56,56,56,96,96,96,29.70,29.70,0,0,0,0.00
2012-9-18,57,57,57,56,56,56,96,96,96,29.70,29.70,0,0,0,0.00
2012-9-19,57,57,57,56,56,56,96,96,96,29.70,29.70,0,0,0,0.00
2012-9-20,57,57,57,56,56,56,96,96,96,29.70,29.70,0,0,0,0.00
2012-9-21,57,57,57,56,56,56,96,96,94,29.70,29.61,0,0,1,0.00
2012-9-22,61,55,46,57,50,42,96,83,63,29.93,29.53,9,2,16,0.23
2012-9-23,59,50,42,44,41,37,92,74,48,30.09,29.93,10,2,19,0.00
2012-9-24,59,49,38,44,40,36,95,73,48,30.12,29.93,15,2,15,0.01
2012-9-25,73,58,44,54,43,39,83,60,31,29.94,29.88,14,1,17,0.01
2012-9-26,69,62,55,62,55,43,88,79,63,30.06,29.85,5,0,7,0.00
2012-9-27,62,52,42,51,44,39,94,75,51,30.20,30.07,7,1,13,0.00
2012-9-28,58,49,40,53,46,39,96,88,69,30.13,30.00,5,0,6,0.02
2012-9-29,62,51,43,55,46,41,96,84,58,30.00,29.90,5,0,6,0.00
2012-9-30,56,52,49,53,49,47,96,88,78,29.89,29.78,5,0,7,0.36
2012-10-1,66,57,50,53,50,47,92,78,59,29.88,29.75,17,2,17,0.01
2012-10-2,62,57,50,60,55,47,96,93,86,29.91,29.82,5,0,6,0.01
2012-10-3,72,64,60,66,62,58,97,90,76,30.06,29.87,5,0,14,0.00
2012-10-4,75,64,58,60,55,51,94,75,44,30.09,29.97,15,1,15,0.00
2012-10-5,70,61,54,59,54,49,91,79,67,29.98,29.82,13,2,19,0.02
2012-10-6,56,50,45,51,42,34,96,76,46,29.98,29.75,16,3,18,0.79
2012-10-7,52,45,38,43,39,35,92,79,58,30.07,29.97,5,0,6,0.09
2012-10-8,55,43,35,44,38,33,96,84,57,30.19,30.07,5,1,9,0.01
2012-10-9,63,46,32,45,38,31,96,78,41,30.19,29.92,5,0,6,0.00
2012-10-10,54,48,43,45,40,32,92,75,54,29.93,29.71,13,2,21,0.01
2012-10-11,56,47,36,36,32,29,83,58,42,30.13,29.93,13,3,17,0.00
2012-10-12,53,42,28,44,32,23,91,71,38,30.42,29.97,7,1,14,0.16
2012-10-13,51,39,26,42,29,21,90,70,31,30.42,29.92,6,0,7,0.11
2012-10-14,73,62,46,61,55,42,96,77,57,29.91,29.54,8,1,9,0.28
2012-10-15,67,56,46,56,47,37,84,72,62,29.74,29.41,19,5,26,0.01
2012-10-16,53,45,36,40,36,32,87,71,51,29.87,29.74,14,2,14,0.00
2012-10-17,71,51,36,46,40,33,93,69,33,29.88,29.73,5,0,6,0.00
2012-10-18,68,58,50,48,45,41,87,64,46,29.82,29.64,15,1,16,0.11
2012-10-19,66,53,45,54,50,44,97,89,62,29.83,29.55,8,1,10,0.49
2012-10-20,56,50,45,54,45,40,97,81,56,29.71,29.55,11,2,18,0.02
2012-10-21,61,52,45,47,44,38,92,76,42,30.02,29.71,21,4,21,0.01
2012-10-22,66,53,44,49,45,42,93,76,48,30.07,30.00,8,1,11,0.00
2012-10-23,52,50,46,51,48,42,97,94,84,30.05,29.97,6,1,7,0.71
2012-10-24,57,54,50,56,53,49,97,96,94,30.06,30.02,4,0,4,0.01
2012-10-25,82,66,56,60,57,55,97,75,41,30.05,29.92,5,1,11,0.00
2012-10-26,76,61,48,58,52,45,91,76,50,30.12,29.93,9,2,15,0.01
2012-10-27,51,48,45,50,47,44,98,96,92,30.11,29.91,4,1,5,0.39
2012-10-28,45,43,42,44,42,41,97,96,95,30.02,29.85,7,1,12,0.34
2012-10-29,51,46,44,50,45,44,100,97,95,29.85,29.06,20,4,37,1.75
2012-10-30,57,52,43,53,47,38,94,83,70,29.36,29.02,24,5,45,0.33
2012-10-31,46,43,41,40,37,34,90,80,64,29.40,29.34,4,0,6,0.00
2012-11-1,44,43,41,42,40,37,93,89,80,29.55,29.38,13,4,23,0.22
2012-11-2,42,39,37,38,34,30,90,81,66,29.82,29.55,14,3,17,0.03
2012-11-3,40,38,36,34,31,28,89,77,69,30.03,29.82,12,2,14,0.01
2012-11-4,37,35,33,31,28,25,89,77,68,30.07,30.02,6,1,9,0.01
2012-11-5,36,34,33,30,26,22,87,70,58,30.17,30.04,4,0,10,0.02
2012-11-6,42,34,31,26,23,20,72,63,49,30.16,30.03,9,1,10,0.00
2012-11-7,40,32,22,29,23,18,90,70,41,30.08,30.02,10,1,10,0.00
2012-11-8,44,33,26,28,22,19,90,68,41,30.10,30.03,5,0,11,0.00
2012-11-9,48,40,27,39,33,21,85,77,60,30.15,30.05,6,1,12,0.00
2012-11-10,51,46,39,43,40,37,95,82,70,30.24,30.13,6,1,9,0.04
2012-11-11,72,60,49,44,41,38,78,52,32,30.21,30.11,8,1,9,0.00
2012-11-12,67,56,41,51,44,38,89,65,49,30.12,29.82,15,3,20,0.33
2012-11-13,40,37,35,37,26,22,88,64,53,30.49,30.11,11,2,16,0.00
2012-11-14,39,35,28,32,26,23,85,70,61,30.57,30.45,5,0,7,0.00
2012-11-15,47,32,24,32,25,21,92,77,42,30.46,30.28,4,0,6,0.00
2012-11-16,49,33,24,38,28,21,94,81,54,30.48,30.30,3,0,6,0.01
2012-11-17,52,35,25,39,29,23,95,80,51,30.62,30.47,3,0,7,0.00
2012-11-18,51,36,25,38,30,23,95,81,50,30.62,30.46,4,0,6,0.01
2012-11-19,53,36,27,37,30,25,93,79,47,30.46,30.20,5,0,6,0.00
2012-11-20,50,38,31,38,33,29,94,83,52,30.19,30.07,4,0,4,0.00
2012-11-21,55,37,26,42,31,24,95,81,44,30.22,30.12,3,0,4,0.01
2012-11-22,63,43,30,40,33,27,91,71,40,30.16,29.91,6,0,7,0.00
2012-11-23,54,46,35,45,34,24,85,63,50,29.90,29.59,18,4,28,0.01
2012-11-24,36,33,31,26,23,19,77,66,56,29.88,29.66,17,5,23,0.00
2012-11-25,33,32,30,28,24,19,87,74,61,29.87,29.77,10,3,17,0.01
2012-11-26,37,34,32,27,25,20,80,67,59,30.19,29.82,12,3,16,0.01
2012-11-27,36,32,29,27,22,19,73,66,58,30.26,30.18,5,0,7,0.00
2012-11-28,37,33,31,28,23,20,81,66,58,30.21,30.10,12,3,15,0.00
2012-11-29,45,37,27,33,27,19,78,66,58,30.24,30.13,18,3,20,0.00
2012-11-30,37,28,25,31,23,19,90,82,72,30.40,30.24,12,4,12,0.00
2012-12-1,46,35,27,37,30,25,92,83,69,30.35,30.14,5,1,7,0.03
2012-12-2,53,49,46,51,43,36,95,81,68,30.14,29.85,11,2,16,0.20
2012-12-3,52,45,42,45,41,38,92,85,70,30.19,30.03,4,0,6,0.00
2012-12-4,68,57,47,55,51,42,93,81,55,30.03,29.81,10,2,19,0.27
2012-12-5,47,36,29,42,26,17,86,69,57,30.34,29.89,13,2,18,0.01
2012-12-6,39,32,21,24,20,16,86,63,46,30.37,30.00,7,1,11,0.00
2012-12-7,45,40,36,38,32,19,90,72,48,29.99,29.89,7,1,11,0.00
2012-12-8,45,41,35,44,39,30,96,93,80,30.11,29.70,6,1,10,0.12
2012-12-9,42,34,29,41,30,24,95,83,74,30.26,29.72,10,2,12,0.25
2012-12-10,52,43,34,49,40,30,95,88,79,29.71,29.46,13,2,16,0.08
2012-12-11,34,29,24,30,24,20,91,83,78,30.14,29.69,4,0,12,0.00
2012-12-12,40,34,27,30,28,25,92,78,60,30.38,30.14,11,2,16,0.01
2012-12-13,46,34,24,27,24,20,88,68,42,30.41,30.15,9,1,9,0.00
2012-12-14,45,35,28,32,26,19,86,69,58,30.23,30.11,13,1,13,0.00
2012-12-15,40,35,28,32,30,25,93,83,72,30.27,29.93,10,1,11,0.00
2012-12-16,55,46,38,42,37,31,84,72,58,29.93,29.65,11,2,15,0.03
2012-12-17,47,46,44,45,42,40,94,88,80,29.69,29.49,6,1,9,0.25
2012-12-18,45,42,39,43,38,27,96,88,62,29.67,29.41,13,1,16,0.46
2012-12-19,43,36,31,33,30,25,92,76,56,30.15,29.67,7,2,13,0.00
2012-12-20,41,33,26,35,26,22,88,77,61,30.15,29.39,15,2,21,0.17
2012-12-21,41,35,29,36,33,28,94,91,80,29.39,29.14,13,3,18,0.35
2012-12-22,32,29,26,28,23,20,94,80,66,29.86,29.29,22,6,23,0.02
2012-12-23,35,32,28,26,24,18,86,73,61,29.96,29.74,14,4,19,0.02
2012-12-24,34,30,28,25,21,18,87,68,55,30.02,29.84,7,1,9,0.00
2012-12-25,32,29,28,27,25,23,92,85,72,30.30,29.86,6,1,9,0.01
2012-12-26,28,25,22,26,21,14,95,84,71,30.31,29.75,13,4,24,0.00
2012-12-27,28,25,23,27,23,21,96,94,92,30.00,29.67,14,2,23,0.00
2012-12-28,28,24,20,25,22,18,92,91,90,30.10,30.00,6,2,12,0.00
2012-12-29,28,25,17,27,23,15,94,93,90,30.00,29.64,4,0,5,0.00
2012-12-30,27,24,21,23,21,19,93,88,81,30.21,29.79,12,2,14,0.00
2012-12-31,34,30,25,28,25,22,89,81,73,30.15,29.80,17,5,19,0.00
2013-1-1,33,22,6,28,14,1,83,72,56,30.02,29.80,14,2,21,0.00